Terminal Aerodrome Forecast
Issued by NWS

Home | Current Version | Previous Version | Text Only | Print | Product List | Glossary On
Versions: 1 2 3 4 5 6 7 8 9 10 11 12 13 14 15
000
FTUS46 KPQR 212328
TAFONP
TAF
KONP 212328Z 2200/2224 31007KT P6SM SCT025 SCT040 BKN100
     FM220700 VRB03KT P6SM SCT025 OVC060
     FM221200 VRB03KT P6SM OVC100=

USA.gov is the U.S. government's official web portal to all federal, state and local government web resources and services.